Time;durP1;ratioP1;P1;durP2;ratioP2;P2;SDS_P1;SDS_P2;PMS_P1;PMS_P2;Temp;Humidity;BMP_temperature;BMP_pressure;BME280_temperature;BME280_humidity;BME280_pressure;Samples;Min_cycle;Max_cycle;Signal;HPM_P1;HPM_P2
2023/08/13 00:01:17;;;;;;;7.30;6.50;;;;;;;;;;5061784;28;20456;-80
2023/08/13 00:03:46;;;;;;;7.50;6.80;;;;;;;;;;5061927;28;20537;-80
2023/08/13 00:06:14;;;;;;;6.40;5.80;;;;;;;;;;5062547;28;20441;-81
2023/08/13 00:08:41;;;;;;;6.83;6.23;;;;;;;;;;5061369;28;20445;-80
2023/08/13 00:11:09;;;;;;;6.50;5.90;;;;;;;;;;5061887;28;20452;-81
2023/08/13 00:13:36;;;;;;;8.07;5.83;;;;;;;;;;5062027;28;20456;-80
2023/08/13 00:16:03;;;;;;;7.27;5.97;;;;;;;;;;5060806;28;20540;-80
2023/08/13 00:18:32;;;;;;;6.80;6.20;;;;;;;;;;5061122;28;20822;-80
2023/08/13 00:21:00;;;;;;;7.70;5.90;;;;;;;;;;5062359;28;20457;-81
2023/08/13 00:23:28;;;;;;;6.60;5.90;;;;;;;;;;5062390;28;20467;-80
2023/08/13 00:25:55;;;;;;;5.87;5.37;;;;;;;;;;5061714;28;20500;-80
2023/08/13 00:28:22;;;;;;;6.57;5.97;;;;;;;;;;5060726;28;20445;-80
2023/08/13 00:30:49;;;;;;;6.97;6.33;;;;;;;;;;5061796;28;20489;-81
2023/08/13 00:33:16;;;;;;;6.20;5.60;;;;;;;;;;5061421;28;20468;-80
2023/08/13 00:35:44;;;;;;;7.30;6.00;;;;;;;;;;5061486;28;20459;-80
2023/08/13 00:38:12;;;;;;;6.07;5.20;;;;;;;;;;5061368;28;20460;-80
2023/08/13 00:40:39;;;;;;;5.80;5.27;;;;;;;;;;5060212;28;20536;-81
2023/08/13 00:43:06;;;;;;;6.10;5.50;;;;;;;;;;5060562;28;20816;-80
2023/08/13 00:45:35;;;;;;;8.00;5.53;;;;;;;;;;5060695;28;20484;-80
2023/08/13 00:48:03;;;;;;;7.23;5.63;;;;;;;;;;5060689;28;20457;-80
2023/08/13 00:50:30;;;;;;;6.30;5.00;;;;;;;;;;5061807;28;20453;-80
2023/08/13 00:52:57;;;;;;;6.10;5.50;;;;;;;;;;5061301;28;20469;-81
2023/08/13 00:55:26;;;;;;;9.40;6.00;;;;;;;;;;5061765;28;20460;-80
2023/08/13 00:57:53;;;;;;;6.40;5.77;;;;;;;;;;5061436;28;20961;-80
2023/08/13 01:00:21;;;;;;;6.60;5.87;;;;;;;;;;5061287;28;20536;-80
2023/08/13 01:02:49;;;;;;;7.10;6.50;;;;;;;;;;5061842;28;20598;-81
2023/08/13 01:05:16;;;;;;;6.20;5.60;;;;;;;;;;5061069;28;20977;-81
2023/08/13 01:07:48;;;;;;;6.77;6.07;;;;;;;;;;5060742;28;20925;-81
2023/08/13 01:10:19;;;;;;;6.70;5.67;;;;;;;;;;5060763;28;20460;-81
2023/08/13 01:12:52;;;;;;;8.47;5.80;;;;;;;;;;5060950;28;20480;-80
2023/08/13 01:15:20;;;;;;;5.37;4.87;;;;;;;;;;5061406;28;20926;-80
2023/08/13 01:17:49;;;;;;;7.00;6.27;;;;;;;;;;5061081;28;20804;-81
2023/08/13 01:20:18;;;;;;;7.00;5.80;;;;;;;;;;5060951;28;20475;-81
2023/08/13 01:22:49;;;;;;;9.53;6.40;;;;;;;;;;5061044;28;20539;-81
2023/08/13 01:25:18;;;;;;;7.43;5.30;;;;;;;;;;5061236;28;20870;-81
2023/08/13 01:27:49;;;;;;;8.30;6.53;;;;;;;;;;5060307;28;20534;-80
2023/08/13 01:30:20;;;;;;;5.23;4.77;;;;;;;;;;5060636;28;20429;-81
2023/08/13 01:32:50;;;;;;;7.33;5.70;;;;;;;;;;5060150;28;20472;-80
2023/08/13 01:35:17;;;;;;;7.40;5.90;;;;;;;;;;5060650;28;20449;-80
2023/08/13 01:37:45;;;;;;;6.80;5.93;;;;;;;;;;5060765;28;20461;-80
2023/08/13 01:40:14;;;;;;;6.67;5.97;;;;;;;;;;5060849;28;20445;-80
2023/08/13 01:42:41;;;;;;;6.60;6.00;;;;;;;;;;5060264;28;20485;-80
2023/08/13 01:45:08;;;;;;;12.47;6.20;;;;;;;;;;5060521;28;20575;-80
2023/08/13 01:47:36;;;;;;;7.70;5.50;;;;;;;;;;5061033;28;20821;-80
2023/08/13 01:50:03;;;;;;;9.23;5.23;;;;;;;;;;5060581;28;20460;-80
2023/08/13 01:52:31;;;;;;;8.60;5.40;;;;;;;;;;5060353;28;20540;-80
2023/08/13 01:54:58;;;;;;;6.57;5.53;;;;;;;;;;5060486;28;20937;-80
2023/08/13 01:57:26;;;;;;;6.77;5.77;;;;;;;;;;5060082;28;20468;-80
2023/08/13 01:59:54;;;;;;;6.97;5.87;;;;;;;;;;5060095;28;20440;-80
2023/08/13 02:02:22;;;;;;;7.10;5.10;;;;;;;;;;5059547;28;20492;-79
2023/08/13 02:04:49;;;;;;;6.07;5.57;;;;;;;;;;5059597;28;20488;-80
2023/08/13 02:07:17;;;;;;;7.73;6.20;;;;;;;;;;5059179;28;20429;-80
2023/08/13 02:09:44;;;;;;;5.87;5.27;;;;;;;;;;5060145;28;20516;-80
2023/08/13 02:12:12;;;;;;;6.63;5.67;;;;;;;;;;5060751;28;20476;-79
2023/08/13 02:14:40;;;;;;;5.00;4.60;;;;;;;;;;5059933;28;20463;-80
2023/08/13 02:17:12;;;;;;;6.47;5.40;;;;;;;;;;5060114;28;20429;-79
2023/08/13 02:19:40;;;;;;;5.93;5.40;;;;;;;;;;5060000;28;20457;-82
2023/08/13 02:22:07;;;;;;;6.33;5.73;;;;;;;;;;5060200;28;20461;-80
2023/08/13 02:24:34;;;;;;;6.10;5.50;;;;;;;;;;5060531;28;20798;-80
2023/08/13 02:27:05;;;;;;;6.10;5.53;;;;;;;;;;5060291;28;20459;-80
2023/08/13 02:29:32;;;;;;;6.30;5.70;;;;;;;;;;5060697;28;20898;-79
2023/08/13 02:32:01;;;;;;;6.97;6.30;;;;;;;;;;5060022;28;20472;-80
2023/08/13 02:34:28;;;;;;;6.37;5.70;;;;;;;;;;5060500;28;20518;-80
2023/08/13 02:36:55;;;;;;;6.23;5.70;;;;;;;;;;5059950;28;20547;-80
2023/08/13 02:39:22;;;;;;;6.93;6.30;;;;;;;;;;5059982;28;20805;-79
2023/08/13 02:41:49;;;;;;;7.30;6.60;;;;;;;;;;5063407;28;20470;-81
2023/08/13 02:44:17;;;;;;;6.73;6.00;;;;;;;;;;5063399;28;20818;-81
2023/08/13 02:46:46;;;;;;;6.80;6.20;;;;;;;;;;5063530;28;20497;-81
2023/08/13 02:49:15;;;;;;;9.10;6.70;;;;;;;;;;5062803;28;20448;-81
2023/08/13 02:51:42;;;;;;;7.03;6.27;;;;;;;;;;5063417;28;20476;-81
2023/08/13 02:54:09;;;;;;;6.87;6.17;;;;;;;;;;5062850;28;20464;-81
2023/08/13 02:56:36;;;;;;;7.30;6.30;;;;;;;;;;5062665;28;20475;-80
2023/08/13 02:59:04;;;;;;;7.60;6.87;;;;;;;;;;5061279;28;20470;-81
2023/08/13 03:01:31;;;;;;;6.87;6.17;;;;;;;;;;5062392;28;20829;-80
2023/08/13 03:04:00;;;;;;;8.70;5.40;;;;;;;;;;5062341;28;20452;-81
2023/08/13 03:06:28;;;;;;;8.03;6.60;;;;;;;;;;5062179;28;20594;-80
2023/08/13 03:08:55;;;;;;;5.87;5.30;;;;;;;;;;5062750;28;20460;-81
2023/08/13 03:11:23;;;;;;;7.23;5.83;;;;;;;;;;5062231;28;20821;-81
2023/08/13 03:13:50;;;;;;;7.67;6.97;;;;;;;;;;5061889;28;20461;-80
2023/08/13 03:16:17;;;;;;;6.97;6.27;;;;;;;;;;5061498;28;20453;-81
2023/08/13 03:18:45;;;;;;;8.23;6.80;;;;;;;;;;5061712;28;20445;-81
2023/08/13 03:21:12;;;;;;;7.27;6.67;;;;;;;;;;5061795;28;20456;-81
2023/08/13 03:23:40;;;;;;;5.83;5.23;;;;;;;;;;5061705;28;20502;-80
2023/08/13 03:26:08;;;;;;;8.30;7.00;;;;;;;;;;5061707;28;20542;-81
2023/08/13 03:28:35;;;;;;;7.13;6.43;;;;;;;;;;5062423;28;20433;-80
2023/08/13 03:31:03;;;;;;;7.53;6.80;;;;;;;;;;5061358;28;21007;-81
2023/08/13 03:33:30;;;;;;;7.40;6.33;;;;;;;;;;5061437;28;20464;-81
2023/08/13 03:35:57;;;;;;;7.60;6.87;;;;;;;;;;5062084;28;20445;-80
2023/08/13 03:38:24;;;;;;;7.60;6.90;;;;;;;;;;5061449;28;20464;-81
2023/08/13 03:40:55;;;;;;;8.50;6.70;;;;;;;;;;5060535;28;20457;-81
2023/08/13 03:43:23;;;;;;;7.37;6.57;;;;;;;;;;5061176;28;20449;-81
2023/08/13 03:45:50;;;;;;;8.47;7.67;;;;;;;;;;5061164;28;20491;-80
2023/08/13 03:48:17;;;;;;;8.30;7.23;;;;;;;;;;5061599;28;20536;-79
2023/08/13 03:50:45;;;;;;;8.60;7.70;;;;;;;;;;5061352;28;20461;-81
2023/08/13 03:53:12;;;;;;;8.20;7.50;;;;;;;;;;5061490;28;20492;-81
2023/08/13 03:55:39;;;;;;;12.60;7.17;;;;;;;;;;5061491;28;20516;-81
2023/08/13 03:58:08;;;;;;;11.10;7.73;;;;;;;;;;5061439;28;20466;-81
2023/08/13 04:00:36;;;;;;;7.33;6.63;;;;;;;;;;5061181;28;20456;-81
2023/08/13 04:03:03;;;;;;;7.93;6.90;;;;;;;;;;5061458;28;20999;-80
2023/08/13 04:05:31;;;;;;;8.10;7.20;;;;;;;;;;5060075;28;20503;-81
2023/08/13 04:07:58;;;;;;;7.10;6.50;;;;;;;;;;5059867;28;20477;-81
2023/08/13 04:10:26;;;;;;;7.73;7.03;;;;;;;;;;5059551;28;20941;-80
2023/08/13 04:12:53;;;;;;;9.57;7.77;;;;;;;;;;5059644;28;20475;-81
2023/08/13 04:15:22;;;;;;;8.53;7.63;;;;;;;;;;5059714;28;20453;-81
2023/08/13 04:17:49;;;;;;;9.57;7.03;;;;;;;;;;5059462;28;20454;-80
2023/08/13 04:20:16;;;;;;;7.73;6.33;;;;;;;;;;5060750;28;20833;-80
2023/08/13 04:22:43;;;;;;;9.30;7.17;;;;;;;;;;5060251;28;20492;-81
2023/08/13 04:25:10;;;;;;;8.47;6.70;;;;;;;;;;5059748;28;20536;-81
2023/08/13 04:27:37;;;;;;;8.47;7.60;;;;;;;;;;5059778;28;20528;-81
2023/08/13 04:30:05;;;;;;;11.97;7.80;;;;;;;;;;5060012;28;20452;-81
2023/08/13 04:32:40;;;;;;;11.00;7.70;;;;;;;;;;5059425;28;20519;-81
2023/08/13 04:35:07;;;;;;;6.80;6.10;;;;;;;;;;5059155;28;20646;-81
2023/08/13 04:37:34;;;;;;;7.73;6.47;;;;;;;;;;5060179;28;20834;-80
2023/08/13 04:40:01;;;;;;;6.43;5.50;;;;;;;;;;5059674;28;20453;-81
2023/08/13 04:42:28;;;;;;;7.27;6.17;;;;;;;;;;5060282;28;20913;-81
2023/08/13 04:44:56;;;;;;;9.70;5.53;;;;;;;;;;5059079;28;20459;-81
2023/08/13 04:47:23;;;;;;;6.43;5.90;;;;;;;;;;5059168;28;20489;-81
2023/08/13 04:49:51;;;;;;;6.27;5.67;;;;;;;;;;5059382;28;20460;-79
2023/08/13 04:52:18;;;;;;;8.00;5.70;;;;;;;;;;5059782;28;20806;-79
2023/08/13 04:54:46;;;;;;;6.50;4.93;;;;;;;;;;5059104;28;20980;-79
2023/08/13 04:57:14;;;;;;;5.90;4.50;;;;;;;;;;5058456;28;20449;-79
2023/08/13 04:59:41;;;;;;;6.27;4.50;;;;;;;;;;5058307;28;20441;-81
2023/08/13 05:02:08;;;;;;;4.17;3.80;;;;;;;;;;5057479;28;20509;-80
2023/08/13 05:04:35;;;;;;;5.13;4.70;;;;;;;;;;5057179;28;20518;-81
2023/08/13 05:07:04;;;;;;;6.47;5.20;;;;;;;;;;5057278;28;20519;-80
2023/08/13 05:09:31;;;;;;;5.17;4.27;;;;;;;;;;5057534;28;20463;-80
2023/08/13 05:11:58;;;;;;;7.20;5.77;;;;;;;;;;5057922;28;20468;-80
2023/08/13 05:14:25;;;;;;;6.47;5.40;;;;;;;;;;5058930;28;20934;-80
2023/08/13 05:16:52;;;;;;;6.73;4.53;;;;;;;;;;5058722;28;20462;-80
2023/08/13 05:19:19;;;;;;;9.73;4.83;;;;;;;;;;5059039;28;20457;-80
2023/08/13 05:21:47;;;;;;;5.83;5.33;;;;;;;;;;5058744;28;20472;-80
2023/08/13 05:24:15;;;;;;;6.70;5.10;;;;;;;;;;5058317;28;20516;-79
2023/08/13 05:26:42;;;;;;;5.80;5.30;;;;;;;;;;5059172;28;20603;-79
2023/08/13 05:29:10;;;;;;;5.20;4.67;;;;;;;;;;5059504;28;20890;-80
2023/08/13 05:31:37;;;;;;;12.37;5.87;;;;;;;;;;5059659;28;20476;-80
2023/08/13 05:34:05;;;;;;;6.33;5.50;;;;;;;;;;5059314;28;20467;-80
2023/08/13 05:36:32;;;;;;;5.37;4.90;;;;;;;;;;5058893;28;20500;-82
2023/08/13 05:39:01;;;;;;;6.00;5.50;;;;;;;;;;5056296;28;20472;-81
2023/08/13 05:41:29;;;;;;;6.67;6.07;;;;;;;;;;5055715;28;20479;-78
2023/08/13 05:43:57;;;;;;;7.43;6.00;;;;;;;;;;5053491;28;20459;-78
2023/08/13 05:46:24;;;;;;;5.80;5.30;;;;;;;;;;5053487;28;20492;-78
2023/08/13 05:48:51;;;;;;;6.40;5.87;;;;;;;;;;5053501;28;20457;-78
2023/08/13 05:51:18;;;;;;;5.93;5.43;;;;;;;;;;5053549;28;20453;-78
2023/08/13 05:53:46;;;;;;;6.43;5.47;;;;;;;;;;5053515;28;20470;-78
2023/08/13 05:56:13;;;;;;;6.30;5.80;;;;;;;;;;5053501;28;20945;-78
2023/08/13 05:58:41;;;;;;;6.60;5.17;;;;;;;;;;5053558;28;20459;-78
2023/08/13 06:01:08;;;;;;;5.93;5.40;;;;;;;;;;5054845;28;20453;-78
2023/08/13 06:03:36;;;;;;;6.37;5.87;;;;;;;;;;5054262;28;20803;-78
2023/08/13 06:06:04;;;;;;;6.40;5.17;;;;;;;;;;5053947;28;20492;-78
2023/08/13 06:08:31;;;;;;;9.47;4.60;;;;;;;;;;5053861;28;20897;-79
2023/08/13 06:10:58;;;;;;;5.00;3.57;;;;;;;;;;5054151;28;20453;-79
2023/08/13 06:13:25;;;;;;;4.40;4.00;;;;;;;;;;5054471;28;20533;-78
2023/08/13 06:15:54;;;;;;;4.00;3.70;;;;;;;;;;5058529;28;20448;-79
2023/08/13 06:18:24;;;;;;;4.20;3.80;;;;;;;;;;5058133;28;20452;-79
2023/08/13 06:20:51;;;;;;;4.77;4.37;;;;;;;;;;5058058;28;21011;-79
2023/08/13 06:23:18;;;;;;;3.87;3.57;;;;;;;;;;5058643;28;20554;-79
2023/08/13 06:25:46;;;;;;;3.70;3.40;;;;;;;;;;5058415;28;20219;-80
2023/08/13 06:28:14;;;;;;;5.57;5.10;;;;;;;;;;5059499;28;20205;-80
2023/08/13 06:30:41;;;;;;;8.00;4.00;;;;;;;;;;5058360;28;20299;-77
2023/08/13 06:33:09;;;;;;;4.00;3.65;;;;;;;;;;5057706;28;20232;-78
2023/08/13 06:35:36;;;;;;;3.95;3.47;;;;;;;;;;5058692;28;20215;-77
2023/08/13 06:38:04;;;;;;;5.47;4.10;;;;;;;;;;5059685;28;20237;-80
2023/08/13 06:40:33;;;;;;;5.07;4.10;;;;;;;;;;5058979;28;20211;-79
2023/08/13 06:43:00;;;;;;;4.10;3.80;;;;;;;;;;5059186;28;20232;-80
2023/08/13 06:45:29;;;;;;;4.60;4.18;;;;;;;;;;5058598;28;20205;-79
2023/08/13 06:47:57;;;;;;;4.35;3.90;;;;;;;;;;5058587;28;20228;-79
2023/08/13 06:50:25;;;;;;;4.53;4.13;;;;;;;;;;5059321;28;20255;-80
2023/08/13 06:52:53;;;;;;;5.53;4.18;;;;;;;;;;5058631;28;20233;-79
2023/08/13 06:55:20;;;;;;;4.15;3.42;;;;;;;;;;5059176;28;20264;-79
2023/08/13 06:57:47;;;;;;;6.88;4.40;;;;;;;;;;5058445;28;20220;-79
2023/08/13 07:00:15;;;;;;;5.57;3.55;;;;;;;;;;5058199;28;20205;-79
2023/08/13 07:02:42;;;;;;;4.45;3.85;;;;;;;;;;5057772;28;20273;-79
2023/08/13 07:05:11;;;;;;;5.55;3.80;;;;;;;;;;5057515;28;20221;-80
2023/08/13 07:07:41;;;;;;;7.35;3.72;;;;;;;;;;5058388;28;20233;-79
2023/08/13 07:10:09;;;;;;;5.45;3.97;;;;;;;;;;5065440;28;20206;-80
2023/08/13 07:12:36;;;;;;;3.60;3.30;;;;;;;;;;5065853;28;20248;-80
2023/08/13 07:15:04;;;;;;;4.22;3.70;;;;;;;;;;5068536;28;20214;-80
2023/08/13 07:17:31;;;;;;;4.82;4.00;;;;;;;;;;5068300;28;20209;-80
2023/08/13 07:19:58;;;;;;;5.57;3.83;;;;;;;;;;5068286;28;20209;-81
2023/08/13 07:22:25;;;;;;;4.18;3.88;;;;;;;;;;5067754;28;20277;-80
2023/08/13 07:24:53;;;;;;;3.92;3.60;;;;;;;;;;5069145;28;20216;-81
2023/08/13 07:27:21;;;;;;;5.07;3.97;;;;;;;;;;5066998;28;20309;-80
2023/08/13 07:29:48;;;;;;;5.63;3.30;;;;;;;;;;5067869;28;20273;-81
2023/08/13 07:32:15;;;;;;;5.82;4.13;;;;;;;;;;5068092;28;20289;-81
2023/08/13 07:34:42;;;;;;;4.15;3.85;;;;;;;;;;5068290;28;20197;-81
2023/08/13 07:37:09;;;;;;;5.30;3.80;;;;;;;;;;5068935;28;20213;-79
2023/08/13 07:39:36;;;;;;;4.40;3.55;;;;;;;;;;5069145;28;20223;-81
2023/08/13 07:42:08;;;;;;;4.88;4.28;;;;;;;;;;5067374;28;20229;-80
2023/08/13 07:44:35;;;;;;;6.28;3.70;;;;;;;;;;5068271;28;20694;-79
2023/08/13 07:47:03;;;;;;;4.25;3.85;;;;;;;;;;5066543;28;20316;-81
2023/08/13 07:49:30;;;;;;;3.83;3.42;;;;;;;;;;5067650;28;20217;-78
2023/08/13 07:51:57;;;;;;;3.67;3.30;;;;;;;;;;5067939;28;20240;-79
2023/08/13 07:54:24;;;;;;;3.53;3.22;;;;;;;;;;5067720;28;20220;-79
2023/08/13 07:56:52;;;;;;;4.00;3.43;;;;;;;;;;5066108;28;20682;-80
2023/08/13 07:59:21;;;;;;;4.70;3.90;;;;;;;;;;5068292;28;20213;-79
2023/08/13 08:01:48;;;;;;;4.67;3.80;;;;;;;;;;5067618;28;20241;-79
2023/08/13 08:04:15;;;;;;;4.43;3.50;;;;;;;;;;5067902;28;20436;-79
2023/08/13 08:06:42;;;;;;;5.63;3.50;;;;;;;;;;5066399;28;20519;-83
2023/08/13 08:09:10;;;;;;;4.53;4.17;;;;;;;;;;5066835;28;20444;-81
2023/08/13 08:11:37;;;;;;;3.83;3.53;;;;;;;;;;5067838;28;20506;-80
2023/08/13 08:14:04;;;;;;;5.03;4.03;;;;;;;;;;5067876;28;20499;-80
2023/08/13 08:16:33;;;;;;;4.53;3.90;;;;;;;;;;5067174;28;20454;-80
2023/08/13 08:19:01;;;;;;;5.10;4.40;;;;;;;;;;5064877;28;20490;-80
2023/08/13 08:21:28;;;;;;;6.23;3.70;;;;;;;;;;5065865;28;20471;-80
2023/08/13 08:23:55;;;;;;;4.20;3.90;;;;;;;;;;5065662;28;20563;-82
2023/08/13 08:26:22;;;;;;;3.90;3.50;;;;;;;;;;5065682;28;20547;-80
2023/08/13 08:28:49;;;;;;;4.57;3.60;;;;;;;;;;5066133;28;20523;-80
2023/08/13 08:31:16;;;;;;;10.07;4.00;;;;;;;;;;5065246;28;20452;-80
2023/08/13 08:33:45;;;;;;;4.60;3.43;;;;;;;;;;5059552;28;20455;-80
2023/08/13 08:36:12;;;;;;;4.73;3.70;;;;;;;;;;5059488;28;20937;-80
2023/08/13 08:38:39;;;;;;;4.63;4.13;;;;;;;;;;5059719;28;20833;-80
2023/08/13 08:41:06;;;;;;;5.13;4.00;;;;;;;;;;5061703;28;20456;-80
2023/08/13 08:43:35;;;;;;;5.27;4.77;;;;;;;;;;5060494;28;20972;-80
2023/08/13 08:46:02;;;;;;;4.67;4.20;;;;;;;;;;5060247;28;20813;-81
2023/08/13 08:48:31;;;;;;;5.90;4.47;;;;;;;;;;5059552;28;20488;-80
2023/08/13 08:51:00;;;;;;;7.27;4.40;;;;;;;;;;5058938;28;20456;-80
2023/08/13 08:53:27;;;;;;;5.40;3.80;;;;;;;;;;5059513;28;20515;-79
2023/08/13 08:55:54;;;;;;;7.10;4.00;;;;;;;;;;5059800;28;20539;-78
2023/08/13 08:58:22;;;;;;;4.73;3.50;;;;;;;;;;5059415;28;20428;-80
2023/08/13 09:00:49;;;;;;;4.17;3.87;;;;;;;;;;5059827;28;20530;-81
2023/08/13 09:03:16;;;;;;;5.13;4.07;;;;;;;;;;5059198;28;20468;-80
2023/08/13 09:05:44;;;;;;;8.27;4.53;;;;;;;;;;5058971;28;20519;-81
2023/08/13 09:08:15;;;;;;;4.20;3.80;;;;;;;;;;5058027;28;20498;-78
2023/08/13 09:10:43;;;;;;;4.30;3.90;;;;;;;;;;5059171;28;20456;-80
2023/08/13 09:13:10;;;;;;;4.60;4.30;;;;;;;;;;5060196;28;20810;-78
2023/08/13 09:15:41;;;;;;;5.03;4.00;;;;;;;;;;5060435;28;20807;-79
2023/08/13 09:18:08;;;;;;;6.87;5.13;;;;;;;;;;5060022;28;20453;-80
2023/08/13 09:20:43;;;;;;;4.60;4.27;;;;;;;;;;5061099;28;20488;-80
2023/08/13 09:23:10;;;;;;;6.00;4.23;;;;;;;;;;5059293;28;20484;-79
2023/08/13 09:25:38;;;;;;;5.47;4.00;;;;;;;;;;5059181;28;20655;-78
2023/08/13 09:28:06;;;;;;;5.73;5.23;;;;;;;;;;5061106;28;20488;-79
2023/08/13 09:30:33;;;;;;;5.50;4.77;;;;;;;;;;5061006;28;20809;-80
2023/08/13 09:33:02;;;;;;;5.17;4.20;;;;;;;;;;5060557;28;20555;-79
2023/08/13 09:35:30;;;;;;;5.80;4.03;;;;;;;;;;5061830;28;20461;-80
2023/08/13 09:37:57;;;;;;;5.63;4.40;;;;;;;;;;5062004;28;20451;-80
2023/08/13 09:40:24;;;;;;;6.13;4.03;;;;;;;;;;5061509;28;20456;-80
2023/08/13 09:42:54;;;;;;;5.33;4.13;;;;;;;;;;5059303;28;20472;-80
2023/08/13 09:45:24;;;;;;;4.50;4.10;;;;;;;;;;5059393;28;20436;-79
2023/08/13 09:47:51;;;;;;;5.30;4.80;;;;;;;;;;5059828;28;20496;-80
2023/08/13 09:50:19;;;;;;;4.30;3.90;;;;;;;;;;5059054;28;20459;-80
2023/08/13 09:52:48;;;;;;;5.80;5.40;;;;;;;;;;5061392;28;20476;-80
2023/08/13 09:55:16;;;;;;;5.50;3.87;;;;;;;;;;5062913;28;20448;-80
2023/08/13 09:57:44;;;;;;;5.63;5.10;;;;;;;;;;5064068;28;20796;-80
2023/08/13 10:00:14;;;;;;;4.63;3.70;;;;;;;;;;5062900;28;20921;-80
2023/08/13 10:02:41;;;;;;;5.80;3.90;;;;;;;;;;5060940;28;21011;-79
2023/08/13 10:05:09;;;;;;;4.87;4.40;;;;;;;;;;5060084;28;20464;-81
2023/08/13 10:07:37;;;;;;;3.90;3.60;;;;;;;;;;5060210;28;20842;-78
2023/08/13 10:10:04;;;;;;;5.00;4.50;;;;;;;;;;5063334;28;20924;-80
2023/08/13 10:12:32;;;;;;;4.27;3.93;;;;;;;;;;5062529;28;20485;-80
2023/08/13 10:14:59;;;;;;;4.73;4.33;;;;;;;;;;5062499;28;20460;-79
2023/08/13 10:17:28;;;;;;;4.60;4.20;;;;;;;;;;5061561;28;20451;-78
2023/08/13 10:19:56;;;;;;;4.40;3.97;;;;;;;;;;5060704;28;20460;-80
2023/08/13 10:22:32;;;;;;;4.77;4.23;;;;;;;;;;5061743;28;20465;-80
2023/08/13 10:24:59;;;;;;;4.37;4.07;;;;;;;;;;5060593;28;20487;-78
2023/08/13 10:27:27;;;;;;;4.20;3.80;;;;;;;;;;5059545;28;20496;-78
2023/08/13 10:30:05;;;;;;;8.40;6.10;;;;;;;;;;5061576;28;20531;-79
2023/08/13 10:32:33;;;;;;;4.30;3.90;;;;;;;;;;5062476;28;20472;-80
2023/08/13 10:35:00;;;;;;;5.67;4.10;;;;;;;;;;5061792;28;20452;-79
2023/08/13 10:37:32;;;;;;;6.13;4.73;;;;;;;;;;5061697;28;20456;-82
2023/08/13 10:40:08;;;;;;;5.47;4.40;;;;;;;;;;5061146;28;20463;-79
2023/08/13 10:42:48;;;;;;;4.43;4.13;;;;;;;;;;5060510;28;20482;-79
2023/08/13 10:45:17;;;;;;;5.63;5.03;;;;;;;;;;5060685;28;20454;-81
2023/08/13 10:47:50;;;;;;;4.53;4.13;;;;;;;;;;5057672;28;20836;-79
2023/08/13 10:50:22;;;;;;;4.93;4.53;;;;;;;;;;5058916;28;20440;-80
2023/08/13 10:52:51;;;;;;;5.43;4.77;;;;;;;;;;5058990;28;20660;-79
2023/08/13 10:55:20;;;;;;;4.60;4.20;;;;;;;;;;5060513;28;20460;-79
2023/08/13 10:57:50;;;;;;;4.87;4.43;;;;;;;;;;5059098;28;20444;-81
2023/08/13 11:00:18;;;;;;;4.37;3.70;;;;;;;;;;5062008;28;20528;-79
2023/08/13 11:02:45;;;;;;;5.13;4.73;;;;;;;;;;5063466;28;20825;-79
2023/08/13 11:05:14;;;;;;;4.40;4.00;;;;;;;;;;5061433;28;20463;-79
2023/08/13 11:07:44;;;;;;;4.07;3.50;;;;;;;;;;5063020;28;20502;-79
2023/08/13 11:10:16;;;;;;;5.93;3.80;;;;;;;;;;5062684;28;20480;-79
2023/08/13 11:12:43;;;;;;;8.20;4.00;;;;;;;;;;5063077;28;20477;-79
2023/08/13 11:15:11;;;;;;;4.37;3.97;;;;;;;;;;5062777;28;20543;-79
2023/08/13 11:17:38;;;;;;;5.77;4.40;;;;;;;;;;5063881;28;20486;-78
2023/08/13 11:20:06;;;;;;;4.53;4.13;;;;;;;;;;5063941;28;20480;-81
2023/08/13 11:22:34;;;;;;;4.43;4.07;;;;;;;;;;5064467;28;20475;-78
2023/08/13 11:25:01;;;;;;;4.73;4.00;;;;;;;;;;5063533;28;20537;-80
2023/08/13 11:27:30;;;;;;;4.40;4.00;;;;;;;;;;5062184;28;20453;-79
2023/08/13 11:29:57;;;;;;;4.80;4.30;;;;;;;;;;5063171;28;20459;-79
2023/08/13 11:32:25;;;;;;;3.60;3.30;;;;;;;;;;5061653;28;20471;-79
2023/08/13 11:34:52;;;;;;;4.87;3.77;;;;;;;;;;5061951;28;20456;-79
2023/08/13 11:37:19;;;;;;;4.70;4.30;;;;;;;;;;5062929;28;20461;-81
2023/08/13 11:39:48;;;;;;;4.20;3.90;;;;;;;;;;5065466;28;20523;-80
2023/08/13 11:42:15;;;;;;;5.80;3.47;;;;;;;;;;5064401;28;20557;-81
2023/08/13 11:44:42;;;;;;;6.07;3.60;;;;;;;;;;5064729;28;20587;-80
2023/08/13 11:47:09;;;;;;;8.30;4.70;;;;;;;;;;5065997;28;20451;-81
2023/08/13 11:49:42;;;;;;;5.60;3.70;;;;;;;;;;5064297;28;20496;-80
2023/08/13 11:52:10;;;;;;;7.73;5.07;;;;;;;;;;5063406;28;20817;-79
2023/08/13 11:54:38;;;;;;;4.77;4.33;;;;;;;;;;5063735;28;20941;-80
2023/08/13 11:57:07;;;;;;;4.87;4.43;;;;;;;;;;5064026;28;20488;-80
2023/08/13 11:59:34;;;;;;;4.13;3.77;;;;;;;;;;5063200;28;20453;-81
2023/08/13 12:02:02;;;;;;;4.63;4.30;;;;;;;;;;5063363;28;20981;-79
2023/08/13 12:04:31;;;;;;;9.50;4.47;;;;;;;;;;5060490;28;20506;-82
2023/08/13 12:06:58;;;;;;;4.73;4.20;;;;;;;;;;5059398;28;20532;-83
2023/08/13 12:09:26;;;;;;;5.13;4.30;;;;;;;;;;5060561;28;20538;-81
2023/08/13 12:11:54;;;;;;;5.27;4.67;;;;;;;;;;5059507;28;20472;-81
2023/08/13 12:14:22;;;;;;;4.07;3.77;;;;;;;;;;5060560;28;20448;-82
2023/08/13 12:16:49;;;;;;;7.43;4.23;;;;;;;;;;5059906;28;20449;-77
2023/08/13 12:19:17;;;;;;;5.80;4.50;;;;;;;;;;5058335;28;20630;-83
2023/08/13 12:21:44;;;;;;;6.20;4.13;;;;;;;;;;5059714;28;20559;-82
2023/08/13 12:24:11;;;;;;;7.73;4.03;;;;;;;;;;5060257;28;20476;-83
2023/08/13 12:26:38;;;;;;;4.57;4.23;;;;;;;;;;5059929;28;20460;-82
2023/08/13 12:29:06;;;;;;;4.40;3.97;;;;;;;;;;5060113;28;20488;-82
2023/08/13 12:31:34;;;;;;;4.77;4.20;;;;;;;;;;5059700;28;20477;-83
2023/08/13 12:34:01;;;;;;;4.40;4.03;;;;;;;;;;5059419;28;21026;-82
2023/08/13 12:36:28;;;;;;;5.40;4.97;;;;;;;;;;5060256;28;20512;-83
2023/08/13 12:38:56;;;;;;;5.70;4.50;;;;;;;;;;5059193;28;20464;-83
2023/08/13 12:41:23;;;;;;;7.93;4.47;;;;;;;;;;5058973;28;20463;-83
2023/08/13 12:43:50;;;;;;;5.07;4.50;;;;;;;;;;5059559;28;20456;-82
2023/08/13 12:46:17;;;;;;;5.53;4.77;;;;;;;;;;5058796;28;20988;-83
2023/08/13 12:48:46;;;;;;;5.03;4.47;;;;;;;;;;5059382;28;20570;-83
2023/08/13 12:51:13;;;;;;;5.77;5.27;;;;;;;;;;5060122;28;20465;-83
2023/08/13 12:53:40;;;;;;;4.90;4.30;;;;;;;;;;5059412;28;20455;-82
2023/08/13 12:56:07;;;;;;;7.57;4.63;;;;;;;;;;5061220;28;20460;-83
2023/08/13 12:58:34;;;;;;;5.20;4.00;;;;;;;;;;5060716;28;20486;-81
2023/08/13 13:01:02;;;;;;;4.93;4.07;;;;;;;;;;5060395;28;20453;-82
2023/08/13 13:03:29;;;;;;;4.60;4.20;;;;;;;;;;5060473;28;20477;-84
2023/08/13 13:05:58;;;;;;;5.03;4.60;;;;;;;;;;5058991;28;20457;-83
2023/08/13 13:08:25;;;;;;;4.80;4.30;;;;;;;;;;5059698;28;21076;-82
2023/08/13 13:10:52;;;;;;;4.43;4.03;;;;;;;;;;5058221;28;20544;-81
2023/08/13 13:13:20;;;;;;;4.17;3.77;;;;;;;;;;5057601;28;20512;-81
2023/08/13 13:15:47;;;;;;;5.93;5.33;;;;;;;;;;5057900;28;20499;-84
2023/08/13 13:18:14;;;;;;;6.60;4.23;;;;;;;;;;5057091;28;20455;-83
2023/08/13 13:20:41;;;;;;;7.20;4.13;;;;;;;;;;5056924;28;20447;-81
2023/08/13 13:23:10;;;;;;;4.77;4.37;;;;;;;;;;5057485;28;20473;-83
2023/08/13 13:25:38;;;;;;;6.27;4.70;;;;;;;;;;5057844;28;20454;-83
2023/08/13 13:28:05;;;;;;;7.20;4.67;;;;;;;;;;5057088;28;21036;-82
2023/08/13 13:30:33;;;;;;;9.20;4.00;;;;;;;;;;5057991;28;20449;-83
2023/08/13 13:33:01;;;;;;;9.20;4.03;;;;;;;;;;5058140;28;21082;-83
2023/08/13 13:35:28;;;;;;;4.40;4.00;;;;;;;;;;5058888;28;20425;-83
2023/08/13 13:37:55;;;;;;;5.63;4.40;;;;;;;;;;5058872;28;20447;-82
2023/08/13 13:40:24;;;;;;;10.47;5.73;;;;;;;;;;5058989;28;20980;-81
2023/08/13 13:42:52;;;;;;;4.50;3.90;;;;;;;;;;5058105;28;20844;-83
2023/08/13 13:45:19;;;;;;;4.50;3.47;;;;;;;;;;5059839;28;20445;-83
2023/08/13 13:47:46;;;;;;;5.63;4.03;;;;;;;;;;5057315;28;20933;-82
2023/08/13 13:50:15;;;;;;;6.27;4.50;;;;;;;;;;5057340;28;20496;-81
2023/08/13 13:52:42;;;;;;;5.20;3.77;;;;;;;;;;5059588;28;20479;-82
2023/08/13 13:55:09;;;;;;;4.40;3.60;;;;;;;;;;5057715;28;20463;-82
2023/08/13 13:57:38;;;;;;;4.60;4.20;;;;;;;;;;5058537;28;20448;-82
2023/08/13 14:00:06;;;;;;;4.97;4.57;;;;;;;;;;5059144;28;20532;-83
2023/08/13 14:02:33;;;;;;;5.40;4.77;;;;;;;;;;5058659;28;20469;-83
2023/08/13 14:05:01;;;;;;;7.07;5.50;;;;;;;;;;5058719;28;20487;-82
2023/08/13 14:07:28;;;;;;;5.13;4.57;;;;;;;;;;5057320;28;20463;-82
2023/08/13 14:09:55;;;;;;;6.03;4.47;;;;;;;;;;5057878;28;20900;-82
2023/08/13 14:12:22;;;;;;;7.07;4.27;;;;;;;;;;5058056;28;20472;-82
2023/08/13 14:14:51;;;;;;;4.97;4.20;;;;;;;;;;5058380;28;20457;-82
2023/08/13 14:17:18;;;;;;;4.63;4.20;;;;;;;;;;5057581;28;20461;-83
2023/08/13 14:19:45;;;;;;;6.27;3.97;;;;;;;;;;5058346;28;20460;-81
2023/08/13 14:22:13;;;;;;;4.10;3.70;;;;;;;;;;5057540;28;20502;-81
2023/08/13 14:24:40;;;;;;;4.60;4.20;;;;;;;;;;5057091;28;20457;-83
2023/08/13 14:27:07;;;;;;;5.07;4.00;;;;;;;;;;5057959;28;20957;-82
2023/08/13 14:29:34;;;;;;;5.10;4.17;;;;;;;;;;5057231;28;21108;-83
2023/08/13 14:32:03;;;;;;;5.30;4.00;;;;;;;;;;5058301;28;20484;-80
2023/08/13 14:34:30;;;;;;;4.33;3.93;;;;;;;;;;5057067;28;20441;-82
2023/08/13 14:36:57;;;;;;;7.13;4.30;;;;;;;;;;5060796;28;20944;-83
2023/08/13 14:39:25;;;;;;;8.90;4.20;;;;;;;;;;5062062;28;20995;-82
2023/08/13 14:41:52;;;;;;;4.10;3.70;;;;;;;;;;5061527;28;20853;-82
2023/08/13 14:44:19;;;;;;;8.50;4.10;;;;;;;;;;5061590;28;20456;-83
2023/08/13 14:46:46;;;;;;;4.97;3.60;;;;;;;;;;5061066;28;20443;-80